Time;durP1;ratioP1;P1;durP2;ratioP2;P2;SDS_P1;SDS_P2;PMS_P1;PMS_P2;Temp;Humidity;BMP_temperature;BMP_pressure;BME280_temperature;BME280_humidity;BME280_pressure;Samples;Min_cycle;Max_cycle;Signal;HPM_P1;HPM_P2
2021/12/09 00:00:17;;;;;;;13.70;7.15;;;15.50;67.70;;;;;;1989643;28;20179;-82
2021/12/09 00:01:23;;;;;;;16.70;8.90;;;15.50;67.70;;;;;;1989664;28;20638;-81
2021/12/09 00:02:23;;;;;;;14.07;7.63;;;15.50;67.80;;;;;;1998163;28;20172;-83
2021/12/09 00:03:22;;;;;;;11.77;6.90;;;15.50;67.60;;;;;;1997914;28;20173;-83
2021/12/09 00:04:27;;;;;;;11.30;7.30;;;15.50;67.50;;;;;;1998047;28;20596;-84
2021/12/09 00:05:26;;;;;;;14.65;7.10;;;15.70;67.90;;;;;;1998185;28;20166;-82
2021/12/09 00:06:28;;;;;;;14.80;8.73;;;15.60;67.60;;;;;;1989333;28;20198;-83
2021/12/09 00:07:27;;;;;;;14.57;7.90;;;15.50;67.50;;;;;;1989341;28;20201;-82
2021/12/09 00:08:28;;;;;;;17.50;8.57;;;15.50;67.50;;;;;;1998003;28;20177;-82
2021/12/09 00:09:27;;;;;;;11.75;7.30;;;15.50;67.50;;;;;;1989610;28;20254;-83
2021/12/09 00:10:27;;;;;;;13.07;7.03;;;15.50;67.80;;;;;;1989475;28;20185;-82
2021/12/09 00:11:28;;;;;;;10.80;6.78;;;15.50;67.70;;;;;;1989009;28;20186;-81
2021/12/09 00:12:27;;;;;;;11.57;6.88;;;15.50;68.30;;;;;;1981738;29;20657;-82
2021/12/09 00:13:28;;;;;;;14.52;8.27;;;15.50;67.70;;;;;;1989668;28;20198;-81
2021/12/09 00:14:30;;;;;;;13.52;7.03;;;15.40;67.80;;;;;;1997765;28;20174;-82
2021/12/09 00:15:29;;;;;;;13.98;7.82;;;15.40;67.90;;;;;;1998205;28;20203;-80
2021/12/09 00:16:27;;;;;;;13.50;7.37;;;15.50;68.00;;;;;;1998380;28;20189;-81
2021/12/09 00:17:26;;;;;;;11.17;7.27;;;15.50;67.80;;;;;;1998137;28;20229;-79
2021/12/09 00:18:25;;;;;;;11.00;6.10;;;15.50;67.80;;;;;;1989513;28;20251;-81
2021/12/09 00:19:24;;;;;;;9.27;5.97;;;15.50;68.00;;;;;;1981992;28;20700;-81
2021/12/09 00:20:23;;;;;;;13.23;7.53;;;15.40;67.70;;;;;;1989276;28;20188;-81
2021/12/09 00:21:21;;;;;;;19.30;7.97;;;15.40;68.00;;;;;;1997710;28;20180;-81
2021/12/09 00:22:20;;;;;;;11.70;7.53;;;15.50;68.10;;;;;;1989603;28;20277;-81
2021/12/09 00:23:19;;;;;;;14.80;7.77;;;15.50;68.00;;;;;;1989484;28;20166;-82
2021/12/09 00:24:17;;;;;;;12.82;6.82;;;15.40;67.90;;;;;;1997345;28;20209;-81
2021/12/09 00:25:16;;;;;;;13.90;8.03;;;15.40;68.10;;;;;;1997869;28;20181;-81
2021/12/09 00:26:15;;;;;;;17.80;7.30;;;15.40;67.90;;;;;;1997581;28;20225;-81
2021/12/09 00:27:14;;;;;;;12.77;6.70;;;15.40;67.90;;;;;;1997532;28;20464;-80
2021/12/09 00:28:12;;;;;;;13.43;7.50;;;15.40;68.10;;;;;;1997771;28;20277;-82
2021/12/09 00:29:14;;;;;;;13.80;7.80;;;15.40;68.00;;;;;;1997823;28;20170;-82
2021/12/09 00:30:13;;;;;;;14.98;7.90;;;15.40;67.90;;;;;;1997936;28;20193;-81
2021/12/09 00:31:14;;;;;;;13.83;7.20;;;15.40;68.00;;;;;;1997698;28;20178;-82
2021/12/09 00:32:12;;;;;;;10.82;7.22;;;15.60;68.20;;;;;;1997802;28;20178;-81
2021/12/09 00:33:11;;;;;;;11.60;7.13;;;15.40;68.20;;;;;;1997646;28;20570;-81
2021/12/09 00:34:10;;;;;;;13.30;7.13;;;15.40;68.20;;;;;;1997793;28;20174;-82
2021/12/09 00:35:10;;;;;;;14.77;7.20;;;15.40;68.10;;;;;;1997639;28;20165;-83
2021/12/09 00:36:09;;;;;;;13.38;7.25;;;15.40;67.90;;;;;;1989156;28;20668;-82
2021/12/09 00:37:23;;;;;;;15.10;8.32;;;15.40;68.00;;;;;;1989388;28;20189;-82
2021/12/09 00:38:34;;;;;;;12.98;7.60;;;15.40;68.00;;;;;;1997412;28;20153;-82
2021/12/09 00:39:32;;;;;;;11.57;6.75;;;15.40;68.00;;;;;;1988591;28;20170;-81
2021/12/09 00:40:31;;;;;;;18.80;7.57;;;15.40;68.00;;;;;;1989253;28;20186;-80
2021/12/09 00:41:29;;;;;;;8.73;6.90;;;15.40;68.10;;;;;;1997210;28;20323;-82
2021/12/09 00:42:28;;;;;;;11.80;7.13;;;15.40;68.00;;;;;;1997344;28;20173;-81
2021/12/09 00:43:27;;;;;;;12.27;6.80;;;15.40;67.80;;;;;;1997679;28;20174;-81
2021/12/09 00:44:25;;;;;;;11.93;7.33;;;15.40;67.90;;;;;;1997697;28;20170;-80
2021/12/09 00:45:24;;;;;;;13.87;7.03;;;15.30;67.90;;;;;;1997605;28;20186;-81
2021/12/09 00:46:23;;;;;;;13.60;7.00;;;15.40;68.00;;;;;;1997598;28;20194;-82
2021/12/09 00:47:23;;;;;;;14.13;7.47;;;15.30;67.80;;;;;;1997801;28;20212;-82
2021/12/09 00:48:21;;;;;;;13.77;7.30;;;15.30;67.80;;;;;;1997681;28;20544;-81
2021/12/09 00:49:20;;;;;;;11.80;6.87;;;15.40;68.00;;;;;;1997729;28;20178;-80
2021/12/09 00:50:19;;;;;;;14.07;7.37;;;15.40;67.90;;;;;;1997538;28;20510;-82
2021/12/09 00:51:18;;;;;;;16.25;7.95;;;15.40;67.90;;;;;;1997673;28;20408;-81
2021/12/09 00:52:17;;;;;;;11.90;7.03;;;15.40;67.80;;;;;;1997970;28;20634;-82
2021/12/09 00:53:16;;;;;;;13.40;7.37;;;15.40;67.80;;;;;;1989096;28;20932;-83
2021/12/09 00:54:14;;;;;;;9.70;6.30;;;15.40;67.80;;;;;;1989117;28;20472;-83
2021/12/09 00:55:14;;;;;;;19.47;7.37;;;15.40;67.90;;;;;;1996940;28;20248;-81
2021/12/09 00:56:13;;;;;;;11.52;7.25;;;15.40;68.00;;;;;;1997822;28;20178;-81
2021/12/09 00:57:12;;;;;;;14.05;7.20;;;15.40;67.80;;;;;;1997582;28;20182;-81
2021/12/09 00:58:12;;;;;;;13.00;7.30;;;15.40;67.70;;;;;;1989209;28;20269;-82
2021/12/09 00:59:10;;;;;;;10.75;7.30;;;15.40;67.70;;;;;;1989557;28;20732;-81
2021/12/09 01:00:13;;;;;;;12.17;6.60;;;15.30;67.60;;;;;;1997581;28;20178;-81
2021/12/09 01:01:12;;;;;;;12.00;6.55;;;15.40;67.70;;;;;;1997868;28;20305;-82
2021/12/09 01:02:11;;;;;;;10.83;7.00;;;15.40;67.80;;;;;;1989034;28;20637;-81
2021/12/09 01:03:10;;;;;;;13.90;7.75;;;15.30;67.80;;;;;;1989319;28;20425;-80
2021/12/09 01:04:08;;;;;;;12.37;7.03;;;15.40;67.80;;;;;;1997811;28;20182;-81
2021/12/09 01:05:09;;;;;;;12.30;8.17;;;15.30;67.60;;;;;;1998369;28;20182;-84
2021/12/09 01:06:09;;;;;;;13.40;6.78;;;15.40;67.90;;;;;;1997790;28;20496;-82
2021/12/09 01:07:09;;;;;;;10.85;6.85;;;15.40;67.80;;;;;;1997785;28;20248;-83
2021/12/09 01:08:10;;;;;;;12.15;7.85;;;15.30;67.60;;;;;;1997739;28;20174;-81
2021/12/09 01:09:09;;;;;;;11.23;7.15;;;15.30;67.70;;;;;;1997979;28;20253;-81
2021/12/09 01:10:12;;;;;;;12.50;7.13;;;15.30;67.70;;;;;;1997537;28;20261;-82
2021/12/09 01:11:12;;;;;;;13.82;7.85;;;15.30;67.70;;;;;;1997669;28;20633;-82
2021/12/09 01:12:11;;;;;;;14.50;7.00;;;15.30;67.80;;;;;;1997504;28;20200;-82
2021/12/09 01:13:11;;;;;;;12.00;7.40;;;15.30;67.60;;;;;;1997508;28;20177;-83
2021/12/09 01:14:10;;;;;;;14.60;7.45;;;15.30;67.60;;;;;;1988786;28;20457;-82
2021/12/09 01:15:12;;;;;;;16.43;7.97;;;15.30;67.40;;;;;;1988969;28;20623;-81
2021/12/09 01:16:11;;;;;;;13.43;7.35;;;15.40;67.60;;;;;;1997476;28;20650;-81
2021/12/09 01:17:10;;;;;;;13.98;8.60;;;15.30;67.70;;;;;;1997659;28;20213;-81
2021/12/09 01:18:09;;;;;;;11.00;6.75;;;15.40;67.80;;;;;;1997801;28;20205;-81
2021/12/09 01:19:07;;;;;;;12.43;7.40;;;15.40;67.70;;;;;;1997527;28;20641;-83
2021/12/09 01:20:10;;;;;;;12.23;7.77;;;15.30;67.70;;;;;;1997535;28;20633;-83
2021/12/09 01:21:11;;;;;;;10.93;6.45;;;15.40;67.60;;;;;;1988954;28;20778;-85
2021/12/09 01:22:10;;;;;;;11.10;6.88;;;15.40;67.60;;;;;;1981510;28;20194;-83
2021/12/09 01:23:10;;;;;;;17.70;8.75;;;15.30;67.50;;;;;;1988908;28;20185;-81
2021/12/09 01:24:09;;;;;;;13.77;7.55;;;15.40;67.70;;;;;;1996997;28;20232;-81
2021/12/09 01:25:10;;;;;;;11.93;7.30;;;15.30;67.50;;;;;;1997366;28;20227;-81
2021/12/09 01:26:10;;;;;;;11.50;7.10;;;15.30;67.50;;;;;;1997230;28;20261;-82
2021/12/09 01:27:09;;;;;;;14.38;7.40;;;15.30;67.50;;;;;;1997009;28;20225;-81
2021/12/09 01:28:17;;;;;;;13.13;7.28;;;15.30;67.60;;;;;;1997424;28;20182;-83
2021/12/09 01:29:20;;;;;;;16.40;6.78;;;15.30;67.60;;;;;;1997435;28;20190;-82
2021/12/09 01:30:20;;;;;;;11.15;7.28;;;15.30;67.80;;;;;;1997781;28;20174;-83
2021/12/09 01:31:24;;;;;;;10.43;7.32;;;15.30;67.60;;;;;;1997478;28;20614;-81
2021/12/09 01:32:28;;;;;;;14.57;7.88;;;15.30;67.60;;;;;;1997506;28;20662;-83
2021/12/09 01:33:27;;;;;;;10.43;6.75;;;15.30;67.60;;;;;;1989079;28;20194;-82
2021/12/09 01:34:25;;;;;;;12.93;7.40;;;15.30;67.70;;;;;;1989239;28;20167;-84
2021/12/09 01:35:33;;;;;;;14.37;6.97;;;15.30;67.70;;;;;;1996768;28;20405;-81
2021/12/09 01:36:34;;;;;;;17.98;7.80;;;15.30;67.60;;;;;;1997391;28;20190;-82
2021/12/09 01:37:34;;;;;;;12.68;7.40;;;15.30;67.70;;;;;;1988979;28;20189;-82
2021/12/09 01:38:33;;;;;;;12.25;7.53;;;15.30;67.80;;;;;;1988898;28;20597;-81
2021/12/09 01:39:33;;;;;;;18.20;7.00;;;15.30;67.70;;;;;;1997104;28;20177;-82
2021/12/09 01:40:32;;;;;;;15.85;7.90;;;15.30;67.70;;;;;;1988981;28;20182;-82
2021/12/09 01:41:31;;;;;;;14.13;7.53;;;15.30;67.60;;;;;;1989129;28;20178;-83
2021/12/09 01:42:29;;;;;;;12.40;7.47;;;15.30;67.60;;;;;;1996909;28;20605;-82
2021/12/09 01:43:28;;;;;;;11.63;7.03;;;15.30;67.70;;;;;;1988949;28;20905;-81
2021/12/09 01:44:26;;;;;;;16.40;8.57;;;15.30;67.50;;;;;;1981311;29;20175;-83
2021/12/09 01:45:26;;;;;;;11.13;7.17;;;15.30;67.60;;;;;;1988729;28;20573;-82
2021/12/09 01:46:25;;;;;;;12.02;7.45;;;15.30;67.60;;;;;;1997053;28;20190;-82
2021/12/09 01:47:23;;;;;;;17.40;7.60;;;15.30;67.70;;;;;;1997219;28;20281;-82
2021/12/09 01:48:22;;;;;;;15.03;7.60;;;15.30;67.60;;;;;;1997383;28;20426;-82
2021/12/09 01:49:20;;;;;;;13.10;7.43;;;15.30;67.60;;;;;;1997197;28;20251;-81
2021/12/09 01:50:20;;;;;;;11.70;6.80;;;15.20;67.60;;;;;;1988968;28;20174;-83
2021/12/09 01:51:20;;;;;;;13.07;7.80;;;15.20;67.50;;;;;;1988786;28;20205;-82
2021/12/09 01:52:18;;;;;;;9.85;6.90;;;15.20;67.40;;;;;;1997031;28;20173;-82
2021/12/09 01:53:18;;;;;;;14.10;7.63;;;15.30;67.70;;;;;;1988717;28;20190;-82
2021/12/09 01:54:17;;;;;;;15.35;8.32;;;15.30;67.60;;;;;;1988056;28;20159;-82
2021/12/09 01:55:17;;;;;;;13.27;7.80;;;15.30;67.60;;;;;;1996956;28;20571;-83
2021/12/09 01:56:24;;;;;;;17.55;7.68;;;15.30;67.60;;;;;;1997225;28;20561;-83
2021/12/09 01:57:23;;;;;;;15.27;8.70;;;15.20;67.60;;;;;;1997414;28;20182;-82
2021/12/09 01:58:21;;;;;;;12.90;7.70;;;15.20;67.60;;;;;;1997266;28;20182;-82
2021/12/09 01:59:20;;;;;;;15.73;7.77;;;15.20;67.70;;;;;;1997407;28;20171;-82
2021/12/09 02:00:25;;;;;;;13.53;7.73;;;15.20;67.50;;;;;;1997200;28;20204;-82
2021/12/09 02:01:24;;;;;;;15.23;8.80;;;15.20;67.50;;;;;;1988881;28;20182;-83
2021/12/09 02:02:23;;;;;;;11.65;7.22;;;15.20;67.60;;;;;;1988802;28;20178;-82
2021/12/09 02:03:21;;;;;;;14.63;8.40;;;15.20;67.70;;;;;;1996729;28;20177;-83
2021/12/09 02:04:20;;;;;;;16.00;9.07;;;15.20;67.50;;;;;;1997385;28;20165;-82
2021/12/09 02:05:19;;;;;;;14.40;8.07;;;15.20;67.40;;;;;;1997241;28;20166;-83
2021/12/09 02:06:19;;;;;;;15.48;9.32;;;15.20;67.50;;;;;;1996974;28;20206;-82
2021/12/09 02:07:19;;;;;;;13.77;7.53;;;15.20;67.50;;;;;;1997138;28;20214;-81
2021/12/09 02:08:18;;;;;;;15.27;8.10;;;15.20;67.60;;;;;;1988916;28;20214;-82
2021/12/09 02:09:17;;;;;;;16.80;8.10;;;15.20;67.70;;;;;;1981351;29;20181;-82
2021/12/09 02:10:18;;;;;;;17.63;8.43;;;15.20;67.70;;;;;;1980773;29;20642;-82
2021/12/09 02:11:18;;;;;;;13.55;8.40;;;15.20;67.70;;;;;;1988699;28;20498;-83
2021/12/09 02:12:16;;;;;;;14.43;8.15;;;15.20;67.60;;;;;;1997095;28;20174;-83
2021/12/09 02:13:16;;;;;;;14.90;7.60;;;15.20;67.50;;;;;;1997146;28;20516;-82
2021/12/09 02:14:15;;;;;;;17.88;8.40;;;15.20;67.40;;;;;;1997012;28;20178;-83
2021/12/09 02:15:14;;;;;;;13.73;8.07;;;15.20;67.60;;;;;;1997040;28;20209;-81
2021/12/09 02:16:13;;;;;;;14.30;8.20;;;15.20;67.70;;;;;;1997031;28;20170;-81
2021/12/09 02:17:12;;;;;;;16.42;8.48;;;15.20;67.60;;;;;;1997123;28;20304;-82
2021/12/09 02:18:13;;;;;;;15.80;7.87;;;15.10;67.60;;;;;;1997221;28;20621;-82
2021/12/09 02:19:13;;;;;;;12.63;7.70;;;15.20;67.70;;;;;;1997418;28;20495;-83
2021/12/09 02:20:12;;;;;;;20.58;8.50;;;15.20;67.70;;;;;;1997104;28;20648;-83
2021/12/09 02:21:25;;;;;;;16.23;8.40;;;15.20;67.60;;;;;;1997277;28;20200;-82
2021/12/09 02:22:25;;;;;;;16.05;9.05;;;15.20;67.50;;;;;;1997422;28;20204;-83
2021/12/09 02:23:23;;;;;;;17.48;8.15;;;15.20;67.70;;;;;;1997219;28;20265;-82
2021/12/09 02:24:22;;;;;;;16.93;9.30;;;15.20;67.50;;;;;;1997252;28;20170;-81
2021/12/09 02:25:20;;;;;;;10.50;7.40;;;15.20;67.60;;;;;;1997268;28;20180;-82
2021/12/09 02:26:24;;;;;;;15.53;8.27;;;15.20;67.70;;;;;;1997151;28;20213;-81
2021/12/09 02:27:24;;;;;;;16.55;8.07;;;15.20;67.70;;;;;;1988681;28;20206;-81
2021/12/09 02:28:25;;;;;;;11.13;7.53;;;15.10;67.40;;;;;;1981127;29;20171;-83
2021/12/09 02:29:24;;;;;;;14.65;8.68;;;15.20;67.60;;;;;;1988816;28;20198;-81
2021/12/09 02:30:22;;;;;;;14.70;7.97;;;15.10;67.40;;;;;;1997188;28;20248;-82
2021/12/09 02:31:22;;;;;;;12.13;7.40;;;15.10;67.60;;;;;;1997263;28;20252;-83
2021/12/09 02:32:20;;;;;;;12.43;8.00;;;15.20;67.50;;;;;;1988805;28;20721;-82
2021/12/09 02:33:19;;;;;;;19.83;8.83;;;15.10;67.60;;;;;;1988816;28;20170;-82
2021/12/09 02:34:17;;;;;;;16.87;8.87;;;15.10;67.70;;;;;;1988381;28;20541;-82
2021/12/09 02:35:17;;;;;;;14.80;7.40;;;15.10;67.70;;;;;;1988827;28;20221;-82
2021/12/09 02:36:16;;;;;;;13.77;7.95;;;15.10;67.70;;;;;;1996626;28;20532;-83
2021/12/09 02:37:14;;;;;;;14.52;7.88;;;15.10;67.60;;;;;;1997450;28;20186;-83
2021/12/09 02:38:13;;;;;;;14.10;8.43;;;15.10;67.60;;;;;;1997486;28;20173;-83
2021/12/09 02:39:14;;;;;;;13.10;7.40;;;15.20;67.60;;;;;;1996874;28;20264;-82
2021/12/09 02:40:12;;;;;;;23.63;9.65;;;15.10;67.60;;;;;;1988608;28;20710;-82
2021/12/09 02:41:16;;;;;;;15.90;8.50;;;15.10;67.60;;;;;;1980936;29;20266;-82
2021/12/09 02:42:15;;;;;;;15.02;8.18;;;15.10;67.50;;;;;;1988967;28;20169;-82
2021/12/09 02:43:15;;;;;;;23.30;8.95;;;15.10;67.70;;;;;;1997064;28;20243;-82
2021/12/09 02:44:19;;;;;;;14.82;8.82;;;15.10;67.70;;;;;;1997225;28;20181;-83
2021/12/09 02:45:17;;;;;;;15.40;8.35;;;15.10;67.70;;;;;;1997136;28;20162;-84
2021/12/09 02:46:17;;;;;;;15.10;8.43;;;15.10;67.50;;;;;;1996987;28;20212;-82
2021/12/09 02:47:16;;;;;;;12.75;7.93;;;15.10;67.80;;;;;;1988796;28;20381;-82
2021/12/09 02:48:19;;;;;;;16.40;9.30;;;15.10;67.90;;;;;;1988676;28;20346;-83
2021/12/09 02:49:22;;;;;;;17.38;7.60;;;15.10;67.70;;;;;;1997155;28;20763;-83
2021/12/09 02:50:21;;;;;;;13.82;8.48;;;15.10;67.80;;;;;;1997331;28;20240;-83
2021/12/09 02:51:19;;;;;;;15.20;8.27;;;15.10;67.60;;;;;;1988608;28;20864;-82
2021/12/09 02:52:19;;;;;;;16.73;8.20;;;15.10;67.70;;;;;;1988813;28;20167;-83
2021/12/09 02:53:18;;;;;;;13.95;8.73;;;15.10;67.80;;;;;;1988445;28;20979;-83
2021/12/09 02:54:19;;;;;;;16.33;8.03;;;15.10;67.70;;;;;;1989174;28;20170;-83
2021/12/09 02:55:17;;;;;;;16.85;8.25;;;15.10;67.60;;;;;;1996990;28;20447;-83
2021/12/09 02:56:18;;;;;;;14.43;8.03;;;15.10;67.70;;;;;;1997392;28;20679;-83
2021/12/09 02:57:17;;;;;;;14.32;8.98;;;15.00;67.70;;;;;;1997431;28;20244;-83
2021/12/09 02:58:16;;;;;;;19.00;8.27;;;15.00;67.80;;;;;;1997799;28;20186;-82
2021/12/09 02:59:15;;;;;;;16.57;8.90;;;15.00;67.80;;;;;;1998259;28;20784;-83
2021/12/09 03:00:14;;;;;;;14.60;8.90;;;15.00;67.70;;;;;;1998626;28;20651;-81
2021/12/09 03:01:16;;;;;;;17.70;8.45;;;15.00;67.70;;;;;;2005389;28;20432;-81
2021/12/09 03:02:15;;;;;;;15.75;8.60;;;15.00;67.80;;;;;;2006403;28;20166;-78
2021/12/09 03:03:14;;;;;;;17.08;9.38;;;15.00;67.80;;;;;;2005975;28;20162;-80
2021/12/09 03:04:12;;;;;;;15.50;8.73;;;15.00;67.70;;;;;;1997411;28;20205;-82
2021/12/09 03:05:11;;;;;;;16.30;9.33;;;15.00;67.70;;;;;;1995333;28;20178;-81
2021/12/09 03:06:09;;;;;;;16.20;8.03;;;14.80;67.60;;;;;;2004179;28;20507;-81
2021/12/09 03:07:15;;;;;;;18.67;7.90;;;15.20;68.00;;;;;;2004800;28;20182;-81
2021/12/09 03:08:21;;;;;;;14.57;8.15;;;15.00;67.80;;;;;;2003000;28;20161;-82
2021/12/09 03:09:21;;;;;;;19.83;10.18;;;15.00;67.90;;;;;;1998927;28;20261;-82
2021/12/09 03:10:25;;;;;;;15.20;8.63;;;15.00;67.90;;;;;;1998627;28;20177;-81
2021/12/09 03:11:24;;;;;;;15.15;8.10;;;15.00;67.90;;;;;;1998647;28;20232;-81
2021/12/09 03:12:34;;;;;;;12.73;7.93;;;15.00;67.80;;;;;;1998626;28;20232;-82
2021/12/09 03:13:33;;;;;;;13.90;7.70;;;15.00;67.80;;;;;;1998657;28;20245;-81
2021/12/09 03:14:32;;;;;;;16.67;7.83;;;15.10;68.10;;;;;;1998622;28;20178;-83
2021/12/09 03:15:33;;;;;;;15.70;9.37;;;15.20;68.00;;;;;;1998462;28;20242;-83
2021/12/09 03:16:32;;;;;;;15.98;9.10;;;15.00;67.70;;;;;;1998498;28;20186;-82
2021/12/09 03:17:30;;;;;;;21.17;9.13;;;15.10;68.00;;;;;;1998638;28;20209;-82
2021/12/09 03:18:30;;;;;;;14.83;8.60;;;15.00;67.90;;;;;;1990035;28;20456;-81
2021/12/09 03:19:28;;;;;;;22.23;10.10;;;15.00;67.70;;;;;;1990351;28;20245;-82
2021/12/09 03:20:27;;;;;;;16.63;8.77;;;15.00;67.80;;;;;;1998285;28;20182;-83
2021/12/09 03:21:35;;;;;;;16.15;9.38;;;15.00;67.90;;;;;;1990044;28;20213;-83
2021/12/09 03:22:34;;;;;;;21.60;8.85;;;15.00;68.00;;;;;;1983070;28;20195;-82
2021/12/09 03:23:33;;;;;;;19.70;9.07;;;14.90;67.90;;;;;;1990233;28;20346;-82
2021/12/09 03:24:31;;;;;;;17.03;8.30;;;14.90;67.90;;;;;;1998089;28;20173;-82
2021/12/09 03:25:30;;;;;;;14.97;9.17;;;14.90;67.80;;;;;;1998383;28;20228;-82
2021/12/09 03:26:32;;;;;;;15.37;9.10;;;15.00;67.70;;;;;;1998250;28;20200;-83
2021/12/09 03:27:30;;;;;;;16.45;8.98;;;14.90;67.70;;;;;;1998270;28;20668;-83
2021/12/09 03:28:29;;;;;;;16.10;8.67;;;14.90;67.80;;;;;;1998389;28;20182;-82
2021/12/09 03:29:29;;;;;;;16.07;8.80;;;14.90;67.90;;;;;;1990018;28;20190;-82
2021/12/09 03:30:28;;;;;;;17.00;8.60;;;15.00;68.10;;;;;;1990105;28;20197;-81
2021/12/09 03:31:27;;;;;;;11.73;7.57;;;15.00;67.90;;;;;;1998182;28;20269;-83
2021/12/09 03:32:26;;;;;;;14.73;8.05;;;15.10;68.00;;;;;;1998444;28;20198;-82
2021/12/09 03:33:24;;;;;;;15.67;9.43;;;15.10;67.90;;;;;;1998482;28;20184;-82
2021/12/09 03:34:28;;;;;;;15.80;9.00;;;15.00;68.50;;;;;;1989873;28;20175;-82
2021/12/09 03:35:27;;;;;;;14.70;8.23;;;15.10;67.90;;;;;;1982458;28;20227;-81
2021/12/09 03:36:28;;;;;;;17.30;8.53;;;15.10;67.80;;;;;;1989976;28;20257;-83
2021/12/09 03:37:27;;;;;;;16.23;9.00;;;15.10;67.90;;;;;;1990222;28;20171;-83
2021/12/09 03:38:26;;;;;;;17.60;10.20;;;15.10;67.90;;;;;;1989841;28;20262;-83
2021/12/09 03:39:30;;;;;;;16.45;10.13;;;15.10;67.70;;;;;;1990094;28;20206;-82
2021/12/09 03:40:29;;;;;;;18.20;9.05;;;15.10;67.90;;;;;;1998301;28;20525;-82
2021/12/09 03:41:27;;;;;;;15.90;8.47;;;15.10;67.70;;;;;;1998515;28;20173;-83
2021/12/09 03:42:29;;;;;;;12.10;8.00;;;15.20;67.70;;;;;;1998263;28;20174;-82
2021/12/09 03:43:28;;;;;;;16.27;8.57;;;15.10;67.40;;;;;;1998410;28;20181;-83
2021/12/09 03:44:28;;;;;;;15.97;7.90;;;15.20;67.40;;;;;;1998488;28;20185;-83
2021/12/09 03:45:26;;;;;;;15.07;7.40;;;15.20;67.40;;;;;;1998275;28;20249;-83
2021/12/09 03:46:25;;;;;;;16.20;9.67;;;15.10;67.90;;;;;;1998500;28;20196;-82
2021/12/09 03:47:26;;;;;;;19.90;9.17;;;15.10;67.10;;;;;;1998549;28;20228;-83
2021/12/09 03:48:27;;;;;;;17.08;9.23;;;15.10;67.20;;;;;;1998391;28;20166;-82
2021/12/09 03:49:26;;;;;;;16.75;8.73;;;15.20;67.20;;;;;;1998550;28;20271;-83
2021/12/09 03:50:24;;;;;;;15.07;9.30;;;15.10;67.20;;;;;;1998482;28;20534;-83
2021/12/09 03:51:23;;;;;;;19.77;9.60;;;15.20;67.20;;;;;;1989954;28;20265;-83
2021/12/09 03:52:21;;;;;;;16.20;9.77;;;15.20;67.20;;;;;;1990041;28;20175;-83
2021/12/09 03:53:20;;;;;;;14.53;8.67;;;15.10;67.20;;;;;;1997832;28;20169;-82
2021/12/09 03:54:19;;;;;;;19.90;9.60;;;15.20;67.20;;;;;;1998421;28;20190;-83
2021/12/09 03:55:17;;;;;;;16.20;9.20;;;15.10;67.30;;;;;;1998531;28;20200;-82
2021/12/09 03:56:16;;;;;;;15.33;9.37;;;15.10;67.20;;;;;;1998593;28;20194;-82
2021/12/09 03:57:15;;;;;;;14.00;8.67;;;15.10;67.20;;;;;;1990247;28;20171;-82
2021/12/09 03:58:14;;;;;;;18.93;9.23;;;15.20;67.10;;;;;;1982296;29;20248;-83
2021/12/09 03:59:13;;;;;;;16.40;10.02;;;15.10;67.40;;;;;;1982255;29;20478;-82
2021/12/09 04:00:12;;;;;;;16.92;8.95;;;15.10;67.20;;;;;;1989550;28;20218;-83
2021/12/09 04:01:11;;;;;;;16.60;8.73;;;15.10;67.40;;;;;;1997644;28;20719;-82
2021/12/09 04:02:11;;;;;;;19.63;9.80;;;15.10;67.20;;;;;;1998164;28;20177;-83
2021/12/09 04:03:10;;;;;;;14.25;8.75;;;15.10;67.10;;;;;;1998365;28;20241;-82
2021/12/09 04:04:09;;;;;;;17.67;9.93;;;15.30;67.30;;;;;;1998046;28;20192;-83
2021/12/09 04:05:08;;;;;;;15.43;9.10;;;15.10;67.10;;;;;;1998274;28;20178;-83
2021/12/09 04:06:07;;;;;;;18.40;9.55;;;15.10;67.40;;;;;;1998275;28;20238;-82
2021/12/09 04:07:06;;;;;;;17.73;9.53;;;15.10;67.20;;;;;;1998201;28;20192;-83
2021/12/09 04:08:07;;;;;;;17.65;9.18;;;15.10;67.30;;;;;;1998281;28;20170;-83
2021/12/09 04:09:08;;;;;;;18.58;9.15;;;15.10;67.20;;;;;;1989886;28;20174;-83
2021/12/09 04:10:07;;;;;;;15.55;8.75;;;15.10;67.10;;;;;;1989994;28;20182;-83
2021/12/09 04:11:06;;;;;;;16.35;8.85;;;15.10;67.20;;;;;;1989657;28;20179;-81
2021/12/09 04:12:05;;;;;;;16.08;8.30;;;15.10;67.20;;;;;;1989885;28;20245;-83
2021/12/09 04:13:05;;;;;;;18.20;9.25;;;15.10;67.10;;;;;;1997929;28;20201;-82
2021/12/09 04:14:05;;;;;;;18.20;9.25;;;15.10;67.20;;;;;;1998284;28;20210;-82
2021/12/09 04:15:05;;;;;;;19.65;10.43;;;15.10;67.20;;;;;;1998421;28;20324;-82
2021/12/09 04:16:05;;;;;;;19.08;9.93;;;15.10;67.20;;;;;;1989467;28;20234;-81
2021/12/09 04:17:04;;;;;;;20.55;9.15;;;15.10;67.30;;;;;;1989173;28;20175;-82
2021/12/09 04:18:03;;;;;;;16.67;9.20;;;15.10;67.30;;;;;;1997847;28;20196;-83
2021/12/09 04:19:03;;;;;;;17.83;10.27;;;15.10;67.30;;;;;;1998437;28;20229;-83
2021/12/09 04:20:05;;;;;;;15.88;8.80;;;15.10;67.10;;;;;;1998072;28;20166;-81
2021/12/09 04:21:04;;;;;;;15.05;8.98;;;15.10;66.90;;;;;;1989754;28;20568;-83
2021/12/09 04:22:03;;;;;;;24.23;11.35;;;15.20;67.20;;;;;;1989971;28;20178;-81
2021/12/09 04:23:03;;;;;;;17.13;8.63;;;15.20;67.20;;;;;;1997952;28;20243;-82
2021/12/09 04:24:07;;;;;;;15.18;8.82;;;15.20;66.90;;;;;;1998441;28;20405;-81
2021/12/09 04:25:06;;;;;;;12.98;7.95;;;15.10;67.00;;;;;;1989918;28;20171;-82
2021/12/09 04:26:06;;;;;;;18.02;8.70;;;15.20;67.10;;;;;;1989997;28;20170;-82
2021/12/09 04:27:04;;;;;;;19.48;9.77;;;15.20;66.90;;;;;;1997697;28;20213;-83
2021/12/09 04:28:04;;;;;;;16.60;9.47;;;15.20;67.00;;;;;;1998188;28;20654;-82
2021/12/09 04:29:04;;;;;;;16.90;9.30;;;15.20;67.10;;;;;;1998383;28;20254;-82
2021/12/09 04:30:03;;;;;;;25.17;10.45;;;15.20;67.00;;;;;;1998366;28;20177;-82
2021/12/09 04:31:02;;;;;;;17.08;9.30;;;15.20;66.90;;;;;;1998396;28;20514;-82
2021/12/09 04:32:01;;;;;;;19.50;10.60;;;15.20;66.80;;;;;;1998551;28;20540;-83
2021/12/09 04:32:59;;;;;;;17.50;9.37;;;15.20;66.90;;;;;;1998526;28;20832;-84
2021/12/09 04:33:58;;;;;;;15.50;9.50;;;15.20;66.80;;;;;;1998560;28;20212;-82
2021/12/09 04:34:57;;;;;;;23.40;10.40;;;15.10;66.70;;;;;;1998505;28;20252;-82
2021/12/09 04:35:57;;;;;;;15.10;9.30;;;15.10;67.00;;;;;;1998512;28;20182;-82
2021/12/09 04:36:56;;;;;;;15.90;8.23;;;15.10;66.90;;;;;;1990068;28;20170;-82
2021/12/09 04:37:56;;;;;;;20.45;10.25;;;15.30;67.20;;;;;;1990123;28;20222;-83
2021/12/09 04:38:54;;;;;;;22.58;10.50;;;15.20;67.00;;;;;;1998606;28;20532;-81
2021/12/09 04:39:53;;;;;;;17.43;9.80;;;15.20;67.00;;;;;;1998542;28;20184;-82
2021/12/09 04:40:53;;;;;;;16.30;7.30;;;15.20;67.10;;;;;;1998396;28;20177;-82
2021/12/09 04:41:53;;;;;;;18.33;10.18;;;15.20;67.10;;;;;;1990500;28;20712;-82
2021/12/09 04:42:52;;;;;;;14.88;9.45;;;15.20;67.20;;;;;;1990687;28;20196;-81
2021/12/09 04:43:51;;;;;;;17.10;8.87;;;15.20;66.90;;;;;;1990934;28;20557;-82
2021/12/09 04:44:49;;;;;;;15.93;9.17;;;15.20;67.20;;;;;;1991961;28;20222;-82
2021/12/09 04:45:48;;;;;;;17.93;9.60;;;15.20;67.00;;;;;;1998684;28;20181;-82
2021/12/09 04:46:47;;;;;;;21.33;10.07;;;15.20;67.40;;;;;;1999921;28;20221;-82
2021/12/09 04:47:47;;;;;;;17.10;10.30;;;15.20;67.40;;;;;;1999557;28;20229;-82
2021/12/09 04:48:46;;;;;;;18.38;8.75;;;15.20;67.20;;;;;;1990870;28;20426;-82
2021/12/09 04:49:45;;;;;;;20.05;9.93;;;15.20;67.20;;;;;;1990900;28;20657;-83
2021/12/09 04:50:44;;;;;;;17.17;9.90;;;15.20;67.30;;;;;;1999161;28;20240;-82
2021/12/09 04:51:42;;;;;;;19.73;10.10;;;15.10;67.20;;;;;;2005880;28;20193;-78
2021/12/09 04:52:41;;;;;;;13.90;8.00;;;15.10;67.30;;;;;;2006869;28;20401;-78
2021/12/09 04:53:39;;;;;;;20.70;10.30;;;15.20;67.40;;;;;;2007041;28;20220;-77
2021/12/09 04:54:41;;;;;;;17.97;8.97;;;15.10;67.30;;;;;;2007143;28;20196;-79
2021/12/09 04:55:40;;;;;;;21.25;10.35;;;15.10;67.50;;;;;;1998990;28;20177;-77
2021/12/09 04:56:38;;;;;;;15.30;8.93;;;15.20;67.20;;;;;;1998857;28;20324;-78
2021/12/09 04:57:42;;;;;;;18.60;10.70;;;15.10;67.20;;;;;;2006671;28;20246;-77
2021/12/09 04:58:41;;;;;;;22.25;9.95;;;15.10;67.20;;;;;;2007205;28;20173;-78
2021/12/09 04:59:40;;;;;;;20.53;10.83;;;15.10;67.20;;;;;;1991009;29;20195;-78
2021/12/09 05:00:38;;;;;;;20.20;10.45;;;15.20;67.30;;;;;;1991064;28;20182;-77
2021/12/09 05:01:37;;;;;;;19.43;10.43;;;15.10;67.30;;;;;;2006191;28;20188;-79
2021/12/09 05:03:53;;;;;;;14.77;10.00;;;15.10;67.40;;;;;;2007169;28;20170;-77
2021/12/09 05:04:52;;;;;;;17.97;9.33;;;15.10;67.10;;;;;;2006836;28;20150;-78
2021/12/09 05:05:53;;;;;;;17.13;8.50;;;15.30;67.70;;;;;;2006774;28;20441;-78
2021/12/09 05:06:51;;;;;;;17.85;10.45;;;15.10;67.40;;;;;;2006752;28;20185;-80
2021/12/09 05:07:50;;;;;;;18.17;10.00;;;15.10;67.40;;;;;;2005735;28;20216;-81